Latest Weather Observations for Charles Point

IDD60901

Issued at 8:41 pm CST Saturday 25 February 2017 (issued every 10 minutes, with the page automatically refreshed every 10 minutes)

About weather observations | Map of Darwin area stations | Latest observations for Darwin area | Other Formats
Station Details ID: 014031 Name: CHARLES POINT Lat: -12.39 Lon: 130.63 Height: 14.0 m
Data from the previous 72 hours. | See also: Recent months for locations in Northern Territory
Date/Time
CST
Temp
°C
App
Temp
°C
Dew
Point
°C
Rel
Hum
%
Delta-T
°C
Wind Press
QNH
hPa
Press
MSL
hPa
Rain since
9am
mm
Dir  Spd
km/h
Gust
km/h
Spd
kts
Gust
kts
25/08:30pm 27.0 31.4 22.8 78 2.9 SW 4 6 2 3 1009.2 1009.1 0.0
25/08:00pm 27.1 31.7 23.1 79 2.7 SW 4 6 2 3 1008.9 1008.8 0.0
25/07:30pm 27.5 32.2 23.3 78 2.9 SW 4 6 2 3 1008.5 1008.4 0.0
25/07:00pm 28.5 33.4 23.6 75 3.4 SW 4 6 2 3 1008.1 1007.9 0.0
25/06:30pm 29.3 34.4 23.3 70 4.1 SW 2 6 1 3 1007.6 1007.4 0.0
25/06:00pm 29.7 34.0 22.7 66 4.8 SW 4 7 2 4 1007.6 1007.4 0.0
25/05:30pm 30.1 34.2 23.0 65 4.9 SW 6 11 3 6 1007.6 1007.4 0.0
25/05:00pm 30.1 34.2 23.0 65 4.9 SW 6 11 3 6 1007.6 1007.4 0.0
25/04:30pm 29.6 32.9 22.6 66 4.8 SW 9 19 5 10 1007.6 1007.4 0.0
25/04:00pm 30.0 33.5 22.9 65 4.9 SW 9 22 5 12 1008.1 1007.9 0.0
25/03:30pm 31.4 35.5 23.2 61 5.7 NW 7 20 4 11 1008.4 1008.2 0.0
25/03:00pm 31.2 35.8 23.8 64 5.1 SSW 6 7 3 4 1008.8 1008.7 0.0
25/02:30pm 28.5 32.6 23.9 76 3.2 SSE 9 17 5 9 1009.2 1009.1 0.0
25/02:00pm 31.9 36.3 24.5 65 5.2 NNW 9 11 5 6 1009.5 1009.4 0.0
25/01:30pm 31.2 35.7 24.6 68 4.6 N 9 13 5 7 1009.7 1009.6 0.0
25/01:00pm 31.5 35.6 23.9 64 5.3 NNW 9 13 5 7 1010.0 1009.9 0.0
25/12:30pm 31.4 35.9 23.0 61 5.8 SSW 4 9 2 5 1010.3 1010.2 0.0
25/12:00pm 30.4 33.7 22.6 63 5.3 S 9 17 5 9 1011.1 1011.0 0.0
25/11:30am 30.7 34.7 23.1 64 5.2 SSW 7 11 4 6 1011.7 1011.6 0.0
25/11:00am 29.4 33.6 23.4 70 4.1 WSW 7 13 4 7 1011.8 1011.7 0.0
25/10:30am 29.9 35.2 25.2 76 3.3 NNW 7 9 4 5 1011.9 1011.8 0.0
25/10:00am 29.5 34.8 25.0 77 3.2 NNW 6 7 3 4 1011.9 1011.8 0.0
25/09:30am 29.6 35.9 25.4 78 3.0 NW 2 6 1 3 1012.0 1011.9 0.0
25/09:00am - - - - - CALM 0 0 0 0 1011.7 1011.6 0.0
25/08:30am - - - - - CALM 0 0 0 0 1011.4 1011.3 0.0
25/08:00am - - - - - CALM 0 0 0 0 1011.2 1011.1 0.0
25/07:30am - - - - - CALM 0 0 0 0 1011.0 1010.9 0.0
25/07:00am 25.2 31.2 24.2 94 0.7 CALM 0 0 0 0 1010.6 1010.5 0.0
25/06:30am 25.2 31.0 24.0 93 0.8 CALM 0 0 0 0 1010.3 1010.2 0.0
25/06:00am 25.4 31.4 24.2 93 0.8 CALM 0 0 0 0 1009.8 1009.7 0.0
25/05:30am 25.5 31.4 24.1 92 1.0 CALM 0 0 0 0 1009.6 1009.5 0.0
25/05:00am 25.6 31.4 24.0 91 1.1 CALM 0 0 0 0 1009.4 1009.3 0.0
25/04:30am 25.8 31.6 24.0 90 1.2 CALM 0 0 0 0 1009.1 1009.0 0.0
25/04:00am 26.4 32.2 23.9 86 1.7 CALM 0 2 0 1 1009.0 1008.9 0.0
25/03:30am 28.1 32.9 24.5 81 2.5 NW 7 13 4 7 1008.8 1008.7 0.0
25/03:00am 27.8 32.4 24.2 81 2.5 NW 7 11 4 6 1009.0 1008.9 0.0
25/02:30am 27.8 32.2 23.8 79 2.8 NW 7 11 4 6 1009.6 1009.5 0.0
25/02:00am 27.7 32.9 25.1 86 1.8 WNW 7 11 4 6 1009.9 1009.8 0.0
25/01:30am 27.5 32.9 25.1 87 1.7 NW 6 11 3 6 1010.2 1010.1 0.0
25/01:00am 26.8 33.0 24.6 88 1.5 CALM 0 4 0 2 1010.7 1010.6 0.0
25/12:30am 27.4 33.7 24.7 85 1.9 CALM 0 4 0 2 1010.8 1010.7 0.0
25/12:00am 28.4 33.5 25.0 82 2.4 NW 7 13 4 7 1010.8 1010.7 0.0
 
Date/Time
CST
Temp
°C
App
Temp
°C
Dew
Point
°C
Rel
Hum
%
Delta-T
°C
Wind Press
QNH
hPa
Press
MSL
hPa
Rain since
9am
mm
Dir  Spd
km/h
Gust
km/h
Spd
kts
Gust
kts
24/11:30pm 28.6 33.6 24.8 80 2.7 NW 7 11 4 6 1010.9 1010.8 0.0
24/11:00pm 28.9 33.6 24.9 79 2.8 NNW 9 15 5 8 1010.7 1010.6 0.0
24/10:30pm 28.7 32.6 24.9 80 2.7 NNW 13 17 7 9 1010.2 1010.1 0.0
24/10:00pm 28.8 32.8 25.0 80 2.7 NNW 13 17 7 9 1010.2 1010.1 0.0
24/09:30pm 28.8 32.5 25.2 81 2.5 N 15 19 8 10 1010.1 1010.0 0.0
24/09:00pm 28.8 31.8 25.2 81 2.5 N 19 22 10 12 1009.9 1009.8 0.0
24/08:30pm 29.1 33.9 25.7 82 2.4 NNW 11 17 6 9 1009.7 1009.6 0.0
24/08:00pm 29.3 33.1 23.5 71 4.0 NNW 9 15 5 8 1009.5 1009.4 0.0
24/07:30pm 29.3 33.6 24.2 74 3.5 NW 9 13 5 7 1009.6 1009.5 0.0
24/07:00pm 29.6 33.5 24.2 73 3.8 NNW 11 17 6 9 1009.4 1009.3 0.0
24/06:30pm 30.2 34.3 24.6 72 3.9 NW 11 17 6 9 1009.1 1009.0 0.0
24/06:00pm 30.6 34.5 24.3 69 4.4 NW 11 15 6 8 1008.8 1008.7 0.0
24/05:30pm 31.2 35.1 24.8 69 4.5 NW 13 19 7 10 1008.6 1008.5 0.0
24/05:00pm 31.0 34.9 24.9 70 4.3 WNW 13 17 7 9 1008.7 1008.6 0.0
24/04:30pm 30.7 34.7 24.4 69 4.4 WNW 11 17 6 9 1008.5 1008.4 0.0
24/04:00pm 30.9 34.5 24.3 68 4.6 WNW 13 17 7 9 1008.6 1008.5 0.0
24/03:30pm 31.1 35.6 25.2 71 4.2 NW 11 15 6 8 1008.3 1008.1 0.0
24/03:00pm 31.1 35.0 24.2 66 4.8 WNW 11 13 6 7 1008.8 1008.7 0.0
24/02:30pm 31.4 36.0 24.8 68 4.6 NW 9 13 5 7 1009.0 1008.9 0.0
24/02:00pm 31.5 35.5 24.4 66 5.0 NW 11 17 6 9 1009.3 1009.2 0.0
24/01:30pm 31.6 36.5 25.2 69 4.5 NW 9 13 5 7 1009.8 1009.7 0.0
24/01:00pm 31.6 36.5 25.2 69 4.5 NW 9 13 5 7 1010.2 1010.1 0.0
24/12:30pm 31.5 36.5 25.4 70 4.3 NW 9 13 5 7 1010.9 1010.8 0.0
24/12:00pm 31.2 36.6 25.5 71 4.0 NW 7 11 4 6 1011.3 1011.2 0.0
24/11:30am 30.8 36.2 25.4 73 3.8 NNW 7 11 4 6 1011.6 1011.5 0.0
24/11:00am 30.7 35.9 24.8 71 4.1 NNW 6 7 3 4 1011.7 1011.6 0.0
24/10:30am 30.5 35.8 24.9 72 3.9 NNW 6 7 3 4 1011.8 1011.7 0.0
24/10:00am 30.2 35.0 24.4 71 4.0 WNW 7 11 4 6 1011.5 1011.4 0.0
24/09:30am 29.8 34.6 24.4 73 3.8 WNW 7 9 4 5 1011.6 1011.5 0.0
24/09:00am 29.7 34.7 24.8 75 3.4 WNW 7 11 4 6 1011.3 1011.2 0.0
24/08:30am 29.5 35.1 25.5 79 2.8 WNW 6 9 3 5 1011.1 1011.0 0.0
24/08:00am 28.7 34.3 24.9 80 2.7 WNW 4 9 2 5 1010.9 1010.8 0.0
24/07:30am 28.9 33.3 25.1 80 2.7 WNW 11 15 6 8 1010.6 1010.5 0.0
24/07:00am 28.7 32.5 24.7 79 2.8 WNW 13 17 7 9 1010.3 1010.2 0.0
24/06:30am 28.6 32.6 25.0 81 2.5 WNW 13 17 7 9 1009.9 1009.8 0.0
24/06:00am 28.5 32.5 25.1 82 2.4 WNW 13 20 7 11 1009.2 1009.1 0.0
24/05:30am 28.5 32.2 25.1 82 2.4 WNW 15 22 8 12 1008.9 1008.8 0.0
24/05:00am 28.6 32.0 25.2 82 2.4 WNW 17 22 9 12 1008.9 1008.8 0.0
24/04:30am 28.6 32.0 25.2 82 2.4 WNW 17 20 9 11 1009.0 1008.9 0.0
24/04:00am 28.7 31.6 25.1 81 2.5 NW 19 24 10 13 1008.7 1008.6 0.0
24/03:30am 28.7 31.7 25.3 82 2.4 WNW 19 26 10 14 1008.3 1008.1 0.0
24/03:00am 28.8 31.9 25.4 82 2.4 NW 19 26 10 14 1008.7 1008.6 0.0
24/02:30am 28.9 31.9 25.3 81 2.5 WNW 19 22 10 12 1008.8 1008.7 0.0
24/02:00am 28.7 31.6 25.1 81 2.5 WNW 19 24 10 13 1008.9 1008.8 0.0
24/01:30am 28.8 32.4 25.6 83 2.3 WNW 17 22 9 12 1009.1 1009.0 0.0
24/01:00am 29.0 32.6 25.6 82 2.4 WNW 17 20 9 11 1009.5 1009.4 0.0
24/12:30am 29.0 32.5 25.4 81 2.5 WNW 17 22 9 12 1009.6 1009.5 0.0
24/12:00am 29.1 33.0 25.5 81 2.5 WNW 15 20 8 11 1009.8 1009.7 0.0
 
Date/Time
CST
Temp
°C
App
Temp
°C
Dew
Point
°C
Rel
Hum
%
Delta-T
°C
Wind Press
QNH
hPa
Press
MSL
hPa
Rain since
9am
mm
Dir  Spd
km/h
Gust
km/h
Spd
kts
Gust
kts
23/11:30pm 29.1 32.9 25.3 80 2.7 WNW 15 19 8 10 1010.0 1009.9 0.0
23/11:00pm 29.0 33.9 25.2 80 2.7 W 9 17 5 9 1009.9 1009.8 0.0
23/10:30pm 28.9 34.0 24.9 79 2.8 W 7 11 4 6 1009.4 1009.3 0.0
23/10:00pm 28.8 33.8 24.8 79 2.8 W 7 15 4 8 1009.2 1009.1 0.0
23/09:30pm 28.8 33.7 24.6 78 2.9 WSW 7 13 4 7 1008.8 1008.7 0.0
23/09:00pm 28.8 33.9 24.6 78 2.9 W 6 11 3 6 1008.6 1008.5 0.0
23/08:30pm 28.9 34.0 24.7 78 2.9 W 6 13 3 7 1008.3 1008.1 0.0
23/08:00pm 28.8 33.9 24.6 78 2.9 WSW 6 9 3 5 1008.1 1007.9 0.0
23/07:30pm 29.2 34.3 24.7 77 3.2 W 6 9 3 5 1007.8 1007.6 0.0
23/07:00pm 29.7 35.4 25.0 76 3.3 WSW 4 11 2 6 1007.4 1007.2 0.0
23/06:30pm 30.6 35.7 25.0 72 3.9 WSW 7 15 4 8 1007.1 1006.9 0.0
23/06:00pm 31.1 35.5 24.5 68 4.6 WSW 9 22 5 12 1006.8 1006.6 0.0
23/05:30pm 31.9 36.8 25.2 67 4.7 W 9 22 5 12 1006.6 1006.4 0.0
23/05:00pm 31.6 35.9 25.5 70 4.3 W 13 22 7 12 1006.4 1006.2 0.0
23/04:30pm 31.8 35.9 25.2 68 4.7 W 13 22 7 12 1006.5 1006.3 0.0
23/04:00pm 31.9 36.0 25.7 69 4.4 W 15 24 8 13 1006.5 1006.3 0.0
23/03:30pm 31.9 36.0 25.7 69 4.4 W 15 22 8 12 1006.6 1006.4 0.0
23/03:00pm 32.1 36.3 25.9 70 4.4 W 15 26 8 14 1006.6 1006.4 0.0
23/02:30pm 32.0 36.0 25.6 69 4.6 W 15 22 8 12 1007.1 1006.9 0.0
23/02:00pm 32.1 35.1 25.2 67 4.9 WNW 19 26 10 14 1007.4 1007.2 0.0
23/01:30pm 32.0 35.0 25.3 67 4.8 WNW 19 26 10 14 1007.9 1007.7 0.0
23/01:00pm 33.1 38.8 25.9 66 5.1 WSW 7 15 4 8 1008.2 1008.0 0.0
23/12:30pm 32.1 36.2 25.7 69 4.6 W 15 24 8 13 1008.8 1008.7 0.0
23/12:00pm 32.3 37.1 25.1 65 5.1 WSW 9 15 5 8 1009.4 1009.3 0.0
23/11:30am 32.3 37.4 25.6 67 4.8 WSW 9 17 5 9 1009.6 1009.5 0.0
23/11:00am 31.9 37.3 25.5 69 4.5 SW 7 17 4 9 1010.0 1009.9 0.0
23/10:30am 31.2 35.4 24.1 66 5.0 SW 9 20 5 11 1010.2 1010.1 0.0
23/10:00am 30.9 35.3 24.5 68 4.5 WSW 9 17 5 9 1010.3 1010.2 0.0
23/09:30am 30.6 35.5 24.7 71 4.1 W 7 13 4 7 1010.3 1010.2 0.0
23/09:00am 30.4 35.8 25.2 74 3.7 WSW 6 13 3 7 1010.4 1010.3 0.0
23/08:30am 29.4 34.2 24.5 75 3.4 WSW 7 13 4 7 1010.1 1010.0 0.0
23/08:00am 28.6 33.7 24.6 79 2.8 W 6 9 3 5 1009.7 1009.6 0.0
23/07:30am 27.1 31.9 24.2 84 2.0 WSW 6 9 3 5 1009.6 1009.5 0.0
23/07:00am 26.4 30.8 23.5 84 2.0 SW 6 9 3 5 1009.3 1009.2 0.0
23/06:30am 26.6 31.1 23.7 84 2.0 WSW 6 11 3 6 1009.2 1009.1 0.0
23/06:00am 26.4 30.8 23.5 84 2.0 SW 6 7 3 4 1009.0 1008.9 0.0
23/05:30am 26.4 30.5 22.9 81 2.4 SW 6 7 3 4 1008.8 1008.7 0.0
23/05:00am 26.6 30.9 23.3 82 2.3 WSW 6 9 3 5 1008.7 1008.6 0.0
23/04:30am 26.9 31.3 23.4 81 2.4 WSW 6 7 3 4 1008.7 1008.6 0.0
23/04:00am 26.8 31.2 23.5 82 2.3 WSW 6 9 3 5 1008.5 1008.4 0.0
23/03:30am 26.5 31.1 23.2 82 2.3 WSW 4 9 2 5 1008.2 1008.0 0.0
23/03:00am 26.7 31.2 23.0 80 2.5 SW 4 6 2 3 1008.1 1007.9 0.0
23/02:30am 26.9 31.0 22.9 79 2.7 SW 6 11 3 6 1008.2 1008.0 0.0
23/02:00am 27.1 31.2 22.9 78 2.9 SW 6 9 3 5 1008.6 1008.5 0.0
23/01:30am 27.2 31.2 22.8 77 3.0 SW 6 9 3 5 1009.2 1009.1 0.0
23/01:00am 27.3 31.5 23.1 78 2.9 WSW 6 11 3 6 1009.6 1009.5 0.0
23/12:30am 27.4 31.6 23.2 78 2.9 WSW 6 9 3 5 1010.2 1010.1 0.0
23/12:00am 27.3 31.9 23.1 78 2.9 WSW 4 7 2 4 1010.6 1010.5 0.0
 
Date/Time
CST
Temp
°C
App
Temp
°C
Dew
Point
°C
Rel
Hum
%
Delta-T
°C
Wind Press
QNH
hPa
Press
MSL
hPa
Rain since
9am
mm
Dir  Spd
km/h
Gust
km/h
Spd
kts
Gust
kts
22/11:30pm 27.5 32.2 23.3 78 2.9 WSW 4 7 2 4 1010.8 1010.7 0.0
22/11:00pm 27.8 32.4 23.8 79 2.8 WSW 6 9 3 5 1010.7 1010.6 0.0
22/10:30pm 27.9 32.3 23.5 77 3.0 WSW 6 9 3 5 1010.6 1010.5 0.0
22/10:00pm 28.1 32.4 23.7 77 3.0 SW 7 13 4 7 1010.3 1010.2 0.0
22/09:30pm 28.0 32.7 24.0 79 2.8 WSW 6 11 3 6 1010.2 1010.1 0.0
22/09:00pm 28.2 32.7 24.0 78 2.9 WSW 7 15 4 8 1009.9 1009.8 0.0

Latest Capital City Observations: Canberra | Sydney | Melbourne | Brisbane | Adelaide | Perth | Hobart | Darwin

Other Formats:

Comma delimited format used in spreadsheet applications
http://www.bom.gov.au/fwo/IDD60901/IDD60901.99510.axf

JavaScript Object Notation format (JSON) in row-major order
http://www.bom.gov.au/fwo/IDD60901/IDD60901.99510.json